sensor_id;sensor_type;location;lat;lon;timestamp;pressure;altitude;pressure_sealevel;temperature;humidity
20019;BME280;10170;42.502;26.526;2023-03-21T00:00:27;99734.25;;;5.97;100.00
20019;BME280;10170;42.502;26.526;2023-03-21T00:02:54;99746.50;;;5.90;100.00
20019;BME280;10170;42.502;26.526;2023-03-21T00:05:21;99738.44;;;5.84;100.00
20019;BME280;10170;42.502;26.526;2023-03-21T00:07:48;99719.41;;;5.58;100.00
20019;BME280;10170;42.502;26.526;2023-03-21T00:10:15;99732.81;;;5.48;100.00
20019;BME280;10170;42.502;26.526;2023-03-21T00:12:55;99731.81;;;5.49;100.00
20019;BME280;10170;42.502;26.526;2023-03-21T00:15:24;99729.34;;;5.56;100.00
20019;BME280;10170;42.502;26.526;2023-03-21T00:18:09;99717.31;;;5.45;100.00
20019;BME280;10170;42.502;26.526;2023-03-21T00:20:37;99711.84;;;5.55;100.00
20019;BME280;10170;42.502;26.526;2023-03-21T00:23:04;99719.84;;;5.38;100.00
20019;BME280;10170;42.502;26.526;2023-03-21T00:25:31;99721.38;;;5.25;100.00
20019;BME280;10170;42.502;26.526;2023-03-21T00:27:58;99702.78;;;5.18;100.00
20019;BME280;10170;42.502;26.526;2023-03-21T00:30:33;99721.38;;;5.25;100.00
20019;BME280;10170;42.502;26.526;2023-03-21T00:33:00;99701.63;;;5.13;100.00
20019;BME280;10170;42.502;26.526;2023-03-21T00:35:41;99709.72;;;5.11;100.00
20019;BME280;10170;42.502;26.526;2023-03-21T00:38:27;99711.22;;;5.06;100.00
20019;BME280;10170;42.502;26.526;2023-03-21T00:40:54;99714.69;;;5.06;100.00
20019;BME280;10170;42.502;26.526;2023-03-21T00:43:25;99717.84;;;4.94;100.00
20019;BME280;10170;42.502;26.526;2023-03-21T00:45:57;99706.50;;;4.85;100.00
20019;BME280;10170;42.502;26.526;2023-03-21T00:48:25;99678.06;;;4.65;100.00
20019;BME280;10170;42.502;26.526;2023-03-21T00:50:54;99690.84;;;4.92;100.00
20019;BME280;10170;42.502;26.526;2023-03-21T00:53:22;99685.75;;;4.90;100.00
20019;BME280;10170;42.502;26.526;2023-03-21T00:55:49;99672.97;;;4.71;100.00
20019;BME280;10170;42.502;26.526;2023-03-21T00:58:16;99670.50;;;4.62;100.00
20019;BME280;10170;42.502;26.526;2023-03-21T01:00:43;99688.59;;;4.65;100.00
20019;BME280;10170;42.502;26.526;2023-03-21T01:03:14;99676.72;;;4.61;100.00
20019;BME280;10170;42.502;26.526;2023-03-21T01:05:51;99674.13;;;4.45;100.00
20019;BME280;10170;42.502;26.526;2023-03-21T01:08:32;99686.97;;;4.48;100.00
20019;BME280;10170;42.502;26.526;2023-03-21T01:11:19;99685.31;;;4.47;100.00
20019;BME280;10170;42.502;26.526;2023-03-21T01:13:46;99686.47;;;4.44;100.00
20019;BME280;10170;42.502;26.526;2023-03-21T01:16:23;99695.03;;;4.30;100.00
20019;BME280;10170;42.502;26.526;2023-03-21T01:18:50;99689.09;;;4.20;100.00
20019;BME280;10170;42.502;26.526;2023-03-21T01:21:18;99683.16;;;4.02;100.00
20019;BME280;10170;42.502;26.526;2023-03-21T01:23:45;99687.63;;;4.01;100.00
20019;BME280;10170;42.502;26.526;2023-03-21T01:26:12;99679.19;;;3.74;100.00
20019;BME280;10170;42.502;26.526;2023-03-21T01:28:41;99672.31;;;3.81;100.00
20019;BME280;10170;42.502;26.526;2023-03-21T01:31:10;99672.81;;;4.00;100.00
20019;BME280;10170;42.502;26.526;2023-03-21T01:33:38;99672.44;;;3.71;100.00
20019;BME280;10170;42.502;26.526;2023-03-21T01:36:05;99673.72;;;3.51;100.00
20019;BME280;10170;42.502;26.526;2023-03-21T01:38:40;99672.41;;;3.55;100.00
20019;BME280;10170;42.502;26.526;2023-03-21T01:41:14;99660.72;;;3.50;100.00
20019;BME280;10170;42.502;26.526;2023-03-21T01:43:46;99659.94;;;3.49;100.00
20019;BME280;10170;42.502;26.526;2023-03-21T01:46:33;99657.47;;;3.56;100.00
20019;BME280;10170;42.502;26.526;2023-03-21T01:52:00;99655.25;;;3.27;100.00
20019;BME280;10170;42.502;26.526;2023-03-21T01:54:38;99656.94;;;3.36;100.00
20019;BME280;10170;42.502;26.526;2023-03-21T01:57:09;99659.94;;;3.49;100.00
20019;BME280;10170;42.502;26.526;2023-03-21T01:59:55;99653.72;;;3.58;100.00
20019;BME280;10170;42.502;26.526;2023-03-21T02:02:27;99631.31;;;3.38;100.00
20019;BME280;10170;42.502;26.526;2023-03-21T02:04:55;99647.75;;;3.48;100.00
20019;BME280;10170;42.502;26.526;2023-03-21T02:07:27;99636.97;;;3.67;100.00
20019;BME280;10170;42.502;26.526;2023-03-21T02:09:55;99642.84;;;3.69;100.00
20019;BME280;10170;42.502;26.526;2023-03-21T02:12:24;99632.50;;;3.68;100.00
20019;BME280;10170;42.502;26.526;2023-03-21T02:15:19;99642.91;;;3.85;100.00
20019;BME280;10170;42.502;26.526;2023-03-21T02:17:58;99627.13;;;3.93;100.00
20019;BME280;10170;42.502;26.526;2023-03-21T02:23:49;99637.66;;;4.17;100.00
20019;BME280;10170;42.502;26.526;2023-03-21T02:38:25;99625.28;;;4.42;100.00
20019;BME280;10170;42.502;26.526;2023-03-21T02:41:11;99621.34;;;4.46;100.00
20019;BME280;10170;42.502;26.526;2023-03-21T02:43:53;99627.72;;;4.60;100.00
20019;BME280;10170;42.502;26.526;2023-03-21T02:46:31;99622.91;;;4.71;100.00
20019;BME280;10170;42.502;26.526;2023-03-21T02:51:44;99613.66;;;4.83;100.00
20019;BME280;10170;42.502;26.526;2023-03-21T02:54:14;99601.91;;;4.94;100.00
20019;BME280;10170;42.502;26.526;2023-03-21T02:57:02;99610.06;;;5.15;100.00
20019;BME280;10170;42.502;26.526;2023-03-21T02:59:31;99603.88;;;5.00;100.00
20019;BME280;10170;42.502;26.526;2023-03-21T03:02:02;99587.44;;;4.98;100.00
20019;BME280;10170;42.502;26.526;2023-03-21T03:04:30;99612.88;;;5.13;100.00
20019;BME280;10170;42.502;26.526;2023-03-21T03:15:45;99604.31;;;5.11;100.00
20019;BME280;10170;42.502;26.526;2023-03-21T03:24:14;99594.91;;;5.17;100.00
20019;BME280;10170;42.502;26.526;2023-03-21T03:26:50;99599.13;;;5.26;100.00
20019;BME280;10170;42.502;26.526;2023-03-21T03:29:20;99589.91;;;5.30;100.00
20019;BME280;10170;42.502;26.526;2023-03-21T03:31:54;99590.84;;;5.37;100.00
20019;BME280;10170;42.502;26.526;2023-03-21T03:34:27;99575.03;;;5.37;100.00
20019;BME280;10170;42.502;26.526;2023-03-21T03:37:00;99576.25;;;5.49;100.00
20019;BME280;10170;42.502;26.526;2023-03-21T03:39:35;99580.38;;;5.52;100.00
20019;BME280;10170;42.502;26.526;2023-03-21T03:42:16;99579.19;;;5.54;100.00
20019;BME280;10170;42.502;26.526;2023-03-21T03:44:54;99580.00;;;5.55;100.00
20019;BME280;10170;42.502;26.526;2023-03-21T03:47:36;99584.41;;;5.62;100.00
20019;BME280;10170;42.502;26.526;2023-03-21T03:50:30;99573.78;;;5.70;100.00
20019;BME280;10170;42.502;26.526;2023-03-21T03:53:07;99579.41;;;5.67;100.00
20019;BME280;10170;42.502;26.526;2023-03-21T03:55:44;99572.53;;;5.66;100.00
20019;BME280;10170;42.502;26.526;2023-03-21T03:58:16;99586.66;;;5.73;100.00
20019;BME280;10170;42.502;26.526;2023-03-21T04:00:51;99570.44;;;5.76;100.00
20019;BME280;10170;42.502;26.526;2023-03-21T04:03:19;99574.31;;;6.11;100.00
20019;BME280;10170;42.502;26.526;2023-03-21T04:05:46;99584.25;;;5.86;100.00
20019;BME280;10170;42.502;26.526;2023-03-21T04:08:14;99584.84;;;5.96;100.00
20019;BME280;10170;42.502;26.526;2023-03-21T04:10:41;99587.00;;;5.93;100.00
20019;BME280;10170;42.502;26.526;2023-03-21T04:13:09;99594.94;;;5.93;100.00
20019;BME280;10170;42.502;26.526;2023-03-21T04:15:36;99599.53;;;6.13;100.00
20019;BME280;10170;42.502;26.526;2023-03-21T04:18:03;99582.25;;;6.11;100.00
20019;BME280;10170;42.502;26.526;2023-03-21T04:20:29;99591.03;;;6.03;100.00
20019;BME280;10170;42.502;26.526;2023-03-21T04:23:08;99600.41;;;6.06;100.00
20019;BME280;10170;42.502;26.526;2023-03-21T04:25:36;99600.53;;;6.12;100.00
20019;BME280;10170;42.502;26.526;2023-03-21T04:28:13;99593.06;;;6.16;100.00
20019;BME280;10170;42.502;26.526;2023-03-21T04:30:40;99592.53;;;6.20;100.00
20019;BME280;10170;42.502;26.526;2023-03-21T04:33:20;99590.91;;;6.19;100.00
20019;BME280;10170;42.502;26.526;2023-03-21T04:35:47;99595.00;;;6.22;100.00
20019;BME280;10170;42.502;26.526;2023-03-21T04:38:14;99591.38;;;6.37;100.00
20019;BME280;10170;42.502;26.526;2023-03-21T04:40:41;99561.91;;;6.11;100.00
20019;BME280;10170;42.502;26.526;2023-03-21T04:43:07;99602.84;;;6.30;100.00
20019;BME280;10170;42.502;26.526;2023-03-21T04:45:34;99598.28;;;6.38;100.00
20019;BME280;10170;42.502;26.526;2023-03-21T04:48:01;99602.00;;;6.29;100.00
20019;BME280;10170;42.502;26.526;2023-03-21T04:50:28;99603.53;;;6.24;100.00
20019;BME280;10170;42.502;26.526;2023-03-21T04:52:54;99605.47;;;6.30;100.00
20019;BME280;10170;42.502;26.526;2023-03-21T04:55:21;99604.84;;;6.28;100.00
20019;BME280;10170;42.502;26.526;2023-03-21T04:57:48;99616.13;;;6.36;100.00
20019;BME280;10170;42.502;26.526;2023-03-21T05:00:15;99614.69;;;6.34;100.00
20019;BME280;10170;42.502;26.526;2023-03-21T05:02:42;99601.72;;;6.24;100.00
20019;BME280;10170;42.502;26.526;2023-03-21T05:05:09;99611.94;;;6.27;100.00
20019;BME280;10170;42.502;26.526;2023-03-21T05:07:39;99603.38;;;6.25;100.00
20019;BME280;10170;42.502;26.526;2023-03-21T05:10:09;99601.00;;;6.16;100.00
20019;BME280;10170;42.502;26.526;2023-03-21T05:12:36;99614.00;;;6.17;100.00
20019;BME280;10170;42.502;26.526;2023-03-21T05:15:03;99585.13;;;6.01;100.00
20019;BME280;10170;42.502;26.526;2023-03-21T05:17:30;99610.53;;;6.17;100.00
20019;BME280;10170;42.502;26.526;2023-03-21T05:19:57;99609.75;;;6.16;100.00
20019;BME280;10170;42.502;26.526;2023-03-21T05:22:24;99599.66;;;6.20;100.00
20019;BME280;10170;42.502;26.526;2023-03-21T05:24:53;99596.44;;;6.24;100.00
20019;BME280;10170;42.502;26.526;2023-03-21T05:27:21;99598.38;;;6.30;100.00
20019;BME280;10170;42.502;26.526;2023-03-21T05:30:16;99605.66;;;6.28;100.00
20019;BME280;10170;42.502;26.526;2023-03-21T05:32:43;99607.09;;;6.31;100.00
20019;BME280;10170;42.502;26.526;2023-03-21T05:35:10;99608.56;;;6.33;100.00
20019;BME280;10170;42.502;26.526;2023-03-21T05:37:37;99601.31;;;6.50;100.00
20019;BME280;10170;42.502;26.526;2023-03-21T05:40:05;99600.22;;;6.45;100.00
20019;BME280;10170;42.502;26.526;2023-03-21T05:42:33;99589.66;;;6.45;100.00
20019;BME280;10170;42.502;26.526;2023-03-21T05:45:00;99601.97;;;6.52;100.00
20019;BME280;10170;42.502;26.526;2023-03-21T05:47:27;99587.28;;;6.50;100.00
20019;BME280;10170;42.502;26.526;2023-03-21T05:49:54;99595.16;;;6.58;100.00
20019;BME280;10170;42.502;26.526;2023-03-21T05:52:20;99599.78;;;6.70;100.00
20019;BME280;10170;42.502;26.526;2023-03-21T05:54:47;99579.19;;;6.80;100.00
20019;BME280;10170;42.502;26.526;2023-03-21T05:57:14;99587.75;;;6.82;100.00
20019;BME280;10170;42.502;26.526;2023-03-21T05:59:41;99595.41;;;6.92;100.00
20019;BME280;10170;42.502;26.526;2023-03-21T06:02:08;99605.53;;;6.88;100.00
20019;BME280;10170;42.502;26.526;2023-03-21T06:04:34;99605.34;;;6.90;100.00
20019;BME280;10170;42.502;26.526;2023-03-21T06:07:01;99590.91;;;7.07;100.00
20019;BME280;10170;42.502;26.526;2023-03-21T06:09:28;99598.97;;;6.99;100.00
20019;BME280;10170;42.502;26.526;2023-03-21T06:11:56;99596.19;;;7.07;100.00
20019;BME280;10170;42.502;26.526;2023-03-21T06:14:23;99598.38;;;7.18;100.00
20019;BME280;10170;42.502;26.526;2023-03-21T06:16:50;99586.25;;;7.09;100.00
20019;BME280;10170;42.502;26.526;2023-03-21T06:19:19;99592.91;;;7.05;100.00
20019;BME280;10170;42.502;26.526;2023-03-21T06:21:47;99597.66;;;7.24;100.00
20019;BME280;10170;42.502;26.526;2023-03-21T06:24:15;99594.94;;;7.38;100.00
20019;BME280;10170;42.502;26.526;2023-03-21T06:26:44;99586.63;;;7.20;100.00
20019;BME280;10170;42.502;26.526;2023-03-21T06:29:11;99600.50;;;7.43;100.00
20019;BME280;10170;42.502;26.526;2023-03-21T06:31:38;99603.72;;;7.60;100.00
20019;BME280;10170;42.502;26.526;2023-03-21T06:34:05;99587.09;;;7.45;100.00
20019;BME280;10170;42.502;26.526;2023-03-21T06:36:32;99605.81;;;7.65;100.00
20019;BME280;10170;42.502;26.526;2023-03-21T06:38:59;99600.81;;;7.55;100.00
20019;BME280;10170;42.502;26.526;2023-03-21T06:41:26;99608.31;;;7.73;100.00
20019;BME280;10170;42.502;26.526;2023-03-21T06:43:52;99602.44;;;7.71;100.00
20019;BME280;10170;42.502;26.526;2023-03-21T06:46:19;99617.00;;;7.81;100.00
20019;BME280;10170;42.502;26.526;2023-03-21T06:48:46;99614.41;;;7.88;100.00
20019;BME280;10170;42.502;26.526;2023-03-21T06:51:14;99618.25;;;8.27;100.00
20019;BME280;10170;42.502;26.526;2023-03-21T06:53:41;99617.72;;;8.17;100.00
20019;BME280;10170;42.502;26.526;2023-03-21T06:56:09;99620.91;;;8.27;100.00
20019;BME280;10170;42.502;26.526;2023-03-21T06:58:36;99609.47;;;8.27;100.00
20019;BME280;10170;42.502;26.526;2023-03-21T07:01:04;99613.66;;;8.70;100.00
20019;BME280;10170;42.502;26.526;2023-03-21T07:03:31;99623.06;;;8.73;100.00
20019;BME280;10170;42.502;26.526;2023-03-21T07:06:09;99616.00;;;8.86;100.00
20019;BME280;10170;42.502;26.526;2023-03-21T07:08:38;99621.09;;;8.88;100.00
20019;BME280;10170;42.502;26.526;2023-03-21T07:11:06;99620.31;;;8.94;100.00
20019;BME280;10170;42.502;26.526;2023-03-21T07:13:33;99617.88;;;8.92;100.00
20019;BME280;10170;42.502;26.526;2023-03-21T07:15:59;99615.66;;;8.96;100.00
20019;BME280;10170;42.502;26.526;2023-03-21T07:18:26;99601.22;;;9.11;100.00
20019;BME280;10170;42.502;26.526;2023-03-21T07:20:53;99615.25;;;9.46;100.00
20019;BME280;10170;42.502;26.526;2023-03-21T07:23:22;99609.41;;;9.77;100.00
20019;BME280;10170;42.502;26.526;2023-03-21T07:25:49;99606.34;;;9.86;100.00
20019;BME280;10170;42.502;26.526;2023-03-21T07:28:17;99599.84;;;10.02;100.00
20019;BME280;10170;42.502;26.526;2023-03-21T07:30:45;99597.44;;;10.20;100.00
20019;BME280;10170;42.502;26.526;2023-03-21T07:33:16;99598.44;;;10.19;100.00
20019;BME280;10170;42.502;26.526;2023-03-21T07:35:43;99603.75;;;10.38;100.00
20019;BME280;10170;42.502;26.526;2023-03-21T07:38:10;99591.16;;;10.98;100.00
20019;BME280;10170;42.502;26.526;2023-03-21T07:40:37;99598.13;;;11.49;100.00
20019;BME280;10170;42.502;26.526;2023-03-21T07:43:04;99592.84;;;11.81;100.00
20019;BME280;10170;42.502;26.526;2023-03-21T07:45:30;99601.06;;;11.79;100.00
20019;BME280;10170;42.502;26.526;2023-03-21T07:47:57;99604.47;;;12.17;100.00
20019;BME280;10170;42.502;26.526;2023-03-21T07:50:24;99603.81;;;11.97;100.00
20019;BME280;10170;42.502;26.526;2023-03-21T07:52:50;99615.41;;;11.78;100.00
20019;BME280;10170;42.502;26.526;2023-03-21T07:55:17;99622.81;;;12.32;100.00
20019;BME280;10170;42.502;26.526;2023-03-21T07:57:44;99628.00;;;12.69;100.00
20019;BME280;10170;42.502;26.526;2023-03-21T08:00:12;99632.38;;;13.25;100.00
20019;BME280;10170;42.502;26.526;2023-03-21T08:02:52;99639.50;;;13.49;100.00
20019;BME280;10170;42.502;26.526;2023-03-21T08:05:29;99649.97;;;13.14;100.00
20019;BME280;10170;42.502;26.526;2023-03-21T08:07:56;99658.66;;;13.10;100.00
20019;BME280;10170;42.502;26.526;2023-03-21T08:10:23;99665.22;;;13.07;100.00
20019;BME280;10170;42.502;26.526;2023-03-21T08:12:50;99672.69;;;12.99;100.00
20019;BME280;10170;42.502;26.526;2023-03-21T08:15:17;99661.91;;;13.12;100.00
20019;BME280;10170;42.502;26.526;2023-03-21T08:17:43;99675.94;;;13.25;100.00
20019;BME280;10170;42.502;26.526;2023-03-21T08:20:16;99682.59;;;14.00;100.00
20019;BME280;10170;42.502;26.526;2023-03-21T08:22:43;99687.22;;;13.93;100.00
20019;BME280;10170;42.502;26.526;2023-03-21T08:25:12;99692.84;;;14.03;100.00
20019;BME280;10170;42.502;26.526;2023-03-21T08:27:41;99693.34;;;14.23;100.00
20019;BME280;10170;42.502;26.526;2023-03-21T08:30:09;99695.16;;;14.29;100.00
20019;BME280;10170;42.502;26.526;2023-03-21T08:32:38;99691.75;;;14.52;100.00
20019;BME280;10170;42.502;26.526;2023-03-21T08:35:06;99696.69;;;13.77;100.00
20019;BME280;10170;42.502;26.526;2023-03-21T08:37:37;99692.59;;;13.57;100.00
20019;BME280;10170;42.502;26.526;2023-03-21T08:40:05;99699.00;;;14.04;100.00
20019;BME280;10170;42.502;26.526;2023-03-21T08:42:34;99707.88;;;14.45;100.00
20019;BME280;10170;42.502;26.526;2023-03-21T08:45:01;99703.59;;;14.44;100.00
20019;BME280;10170;42.502;26.526;2023-03-21T08:47:27;99707.75;;;14.93;100.00
20019;BME280;10170;42.502;26.526;2023-03-21T08:49:55;99684.34;;;14.36;100.00
20019;BME280;10170;42.502;26.526;2023-03-21T08:52:25;99705.66;;;14.13;100.00
20019;BME280;10170;42.502;26.526;2023-03-21T08:54:53;99692.09;;;14.26;100.00
20019;BME280;10170;42.502;26.526;2023-03-21T08:57:20;99698.16;;;15.20;100.00
20019;BME280;10170;42.502;26.526;2023-03-21T08:59:47;99691.28;;;15.59;100.00
20019;BME280;10170;42.502;26.526;2023-03-21T09:02:15;99682.91;;;15.32;100.00
20019;BME280;10170;42.502;26.526;2023-03-21T09:04:42;99687.81;;;15.47;100.00
20019;BME280;10170;42.502;26.526;2023-03-21T09:07:10;99687.56;;;14.79;100.00
20019;BME280;10170;42.502;26.526;2023-03-21T09:09:40;99683.25;;;15.87;100.00
20019;BME280;10170;42.502;26.526;2023-03-21T09:12:07;99693.78;;;15.77;100.00
20019;BME280;10170;42.502;26.526;2023-03-21T09:14:34;99690.19;;;16.44;100.00
20019;BME280;10170;42.502;26.526;2023-03-21T09:17:01;99690.94;;;15.95;100.00
20019;BME280;10170;42.502;26.526;2023-03-21T09:19:28;99685.91;;;15.59;100.00
20019;BME280;10170;42.502;26.526;2023-03-21T09:21:55;99679.28;;;15.90;100.00
20019;BME280;10170;42.502;26.526;2023-03-21T09:24:23;99671.34;;;15.55;100.00
20019;BME280;10170;42.502;26.526;2023-03-21T09:26:49;99669.91;;;16.04;100.00
20019;BME280;10170;42.502;26.526;2023-03-21T09:29:17;99661.72;;;15.82;100.00
20019;BME280;10170;42.502;26.526;2023-03-21T09:31:46;99662.94;;;15.63;100.00
20019;BME280;10170;42.502;26.526;2023-03-21T09:34:13;99655.41;;;15.37;100.00
20019;BME280;10170;42.502;26.526;2023-03-21T09:36:41;99657.75;;;15.45;100.00
20019;BME280;10170;42.502;26.526;2023-03-21T09:39:10;99653.66;;;15.54;100.00
20019;BME280;10170;42.502;26.526;2023-03-21T09:46:46;99644.88;;;17.36;100.00
20019;BME280;10170;42.502;26.526;2023-03-21T09:49:43;99640.22;;;17.48;100.00
20019;BME280;10170;42.502;26.526;2023-03-21T09:52:21;99650.31;;;18.11;100.00
20019;BME280;10170;42.502;26.526;2023-03-21T09:54:50;99636.50;;;18.02;100.00
20019;BME280;10170;42.502;26.526;2023-03-21T10:00:25;99641.41;;;16.97;100.00
20019;BME280;10170;42.502;26.526;2023-03-21T10:02:56;99625.50;;;15.96;100.00
20019;BME280;10170;42.502;26.526;2023-03-21T10:05:29;99644.44;;;16.67;100.00
20019;BME280;10170;42.502;26.526;2023-03-21T10:08:04;99643.84;;;16.99;100.00
20019;BME280;10170;42.502;26.526;2023-03-21T10:10:37;99635.25;;;16.63;100.00
20019;BME280;10170;42.502;26.526;2023-03-21T10:13:13;99636.81;;;16.59;100.00
20019;BME280;10170;42.502;26.526;2023-03-21T10:15:41;99631.44;;;16.59;100.00
20019;BME280;10170;42.502;26.526;2023-03-21T10:18:13;99633.50;;;15.79;100.00
20019;BME280;10170;42.502;26.526;2023-03-21T10:20:44;99638.09;;;16.57;100.00
20019;BME280;10170;42.502;26.526;2023-03-21T10:23:14;99625.22;;;16.42;100.00
20019;BME280;10170;42.502;26.526;2023-03-21T10:25:51;99629.22;;;16.73;100.00
20019;BME280;10170;42.502;26.526;2023-03-21T10:28:24;99622.75;;;16.24;100.00
20019;BME280;10170;42.502;26.526;2023-03-21T10:30:54;99627.13;;;17.13;100.00
20019;BME280;10170;42.502;26.526;2023-03-21T10:33:27;99629.81;;;18.05;100.00
20019;BME280;10170;42.502;26.526;2023-03-21T10:35:58;99624.91;;;18.55;100.00
20019;BME280;10170;42.502;26.526;2023-03-21T10:38:27;99617.72;;;18.65;100.00
20019;BME280;10170;42.502;26.526;2023-03-21T10:40:54;99606.81;;;18.50;100.00
20019;BME280;10170;42.502;26.526;2023-03-21T10:45:52;99615.50;;;18.99;100.00
20019;BME280;10170;42.502;26.526;2023-03-21T10:48:20;99621.03;;;18.82;100.00
20019;BME280;10170;42.502;26.526;2023-03-21T10:50:54;99616.75;;;17.65;100.00
20019;BME280;10170;42.502;26.526;2023-03-21T10:53:28;99612.25;;;17.70;100.00
20019;BME280;10170;42.502;26.526;2023-03-21T10:55:58;99608.19;;;18.21;100.00
20019;BME280;10170;42.502;26.526;2023-03-21T10:58:29;99606.22;;;17.58;100.00
20019;BME280;10170;42.502;26.526;2023-03-21T11:01:05;99589.19;;;17.31;100.00
20019;BME280;10170;42.502;26.526;2023-03-21T11:03:37;99595.31;;;17.48;100.00
20019;BME280;10170;42.502;26.526;2023-03-21T11:06:26;99598.94;;;17.85;100.00
20019;BME280;10170;42.502;26.526;2023-03-21T11:09:05;99595.88;;;17.50;100.00
20019;BME280;10170;42.502;26.526;2023-03-21T11:11:38;99593.88;;;17.89;100.00
20019;BME280;10170;42.502;26.526;2023-03-21T11:14:11;99575.91;;;18.26;100.00
20019;BME280;10170;42.502;26.526;2023-03-21T11:16:49;99588.63;;;18.04;100.00
20019;BME280;10170;42.502;26.526;2023-03-21T11:19:19;99587.84;;;18.35;93.51
20019;BME280;10170;42.502;26.526;2023-03-21T11:21:52;99592.66;;;19.17;87.38
20019;BME280;10170;42.502;26.526;2023-03-21T11:24:19;99589.50;;;19.30;82.07
20019;BME280;10170;42.502;26.526;2023-03-21T11:26:48;99583.69;;;19.63;81.35
20019;BME280;10170;42.502;26.526;2023-03-21T11:29:26;99581.22;;;18.89;85.77
20019;BME280;10170;42.502;26.526;2023-03-21T11:31:58;99581.44;;;18.41;88.91
20019;BME280;10170;42.502;26.526;2023-03-21T11:34:32;99581.06;;;18.64;83.16
20019;BME280;10170;42.502;26.526;2023-03-21T11:37:04;99568.94;;;18.62;79.93
20019;BME280;10170;42.502;26.526;2023-03-21T11:39:36;99572.38;;;18.52;84.02
20019;BME280;10170;42.502;26.526;2023-03-21T11:42:25;99574.53;;;19.02;83.42
20019;BME280;10170;42.502;26.526;2023-03-21T11:45:28;99569.75;;;19.14;84.32
20019;BME280;10170;42.502;26.526;2023-03-21T11:47:57;99554.25;;;18.89;83.85
20019;BME280;10170;42.502;26.526;2023-03-21T11:50:36;99555.88;;;18.44;87.49
20019;BME280;10170;42.502;26.526;2023-03-21T12:01:37;99533.91;;;18.25;97.32
20019;BME280;10170;42.502;26.526;2023-03-21T12:06:46;99531.25;;;18.30;99.68
20019;BME280;10170;42.502;26.526;2023-03-21T12:15:29;99511.78;;;18.18;100.00
20019;BME280;10170;42.502;26.526;2023-03-21T12:26:40;99498.97;;;17.99;99.43
20019;BME280;10170;42.502;26.526;2023-03-21T12:39:42;99483.47;;;18.47;80.38
20019;BME280;10170;42.502;26.526;2023-03-21T12:45:01;99475.25;;;18.32;82.93
20019;BME280;10170;42.502;26.526;2023-03-21T12:47:41;99465.31;;;18.79;80.33
20019;BME280;10170;42.502;26.526;2023-03-21T12:50:21;99465.22;;;19.31;75.51
20019;BME280;10170;42.502;26.526;2023-03-21T12:52:56;99448.22;;;19.31;73.25
20019;BME280;10170;42.502;26.526;2023-03-21T12:55:32;99439.28;;;19.05;74.09
20019;BME280;10170;42.502;26.526;2023-03-21T12:58:10;99437.94;;;19.18;73.13
20019;BME280;10170;42.502;26.526;2023-03-21T13:03:18;99424.84;;;18.64;76.30
20019;BME280;10170;42.502;26.526;2023-03-21T13:06:04;99422.41;;;18.68;80.45
20019;BME280;10170;42.502;26.526;2023-03-21T13:08:41;99410.34;;;18.75;75.30
20019;BME280;10170;42.502;26.526;2023-03-21T13:11:13;99404.19;;;18.28;81.82
20019;BME280;10170;42.502;26.526;2023-03-21T13:16:39;99391.69;;;18.07;90.62
20019;BME280;10170;42.502;26.526;2023-03-21T13:19:27;99395.84;;;18.30;92.41
20019;BME280;10170;42.502;26.526;2023-03-21T13:27:11;99394.38;;;17.65;96.20
20019;BME280;10170;42.502;26.526;2023-03-21T13:29:47;99391.25;;;17.47;95.84
20019;BME280;10170;42.502;26.526;2023-03-21T13:35:54;99389.50;;;17.62;96.05
20019;BME280;10170;42.502;26.526;2023-03-21T13:38:09;99396.63;;;17.47;100.00
20019;BME280;10170;42.502;26.526;2023-03-21T13:40:49;99384.19;;;17.41;100.00
20019;BME280;10170;42.502;26.526;2023-03-21T13:56:55;99384.31;;;17.51;100.00
20019;BME280;10170;42.502;26.526;2023-03-21T14:04:38;99372.84;;;17.34;100.00
20019;BME280;10170;42.502;26.526;2023-03-21T14:07:22;99366.19;;;17.41;100.00
20019;BME280;10170;42.502;26.526;2023-03-21T14:09:54;99356.97;;;17.32;100.00
20019;BME280;10170;42.502;26.526;2023-03-21T14:12:26;99355.16;;;17.43;100.00
20019;BME280;10170;42.502;26.526;2023-03-21T14:15:31;99350.09;;;17.15;100.00
20019;BME280;10170;42.502;26.526;2023-03-21T14:17:55;99346.84;;;17.13;100.00
20019;BME280;10170;42.502;26.526;2023-03-21T14:20:31;99329.31;;;17.05;100.00
20019;BME280;10170;42.502;26.526;2023-03-21T14:22:58;99342.63;;;16.90;100.00
20019;BME280;10170;42.502;26.526;2023-03-21T14:25:32;99333.22;;;16.44;100.00
20019;BME280;10170;42.502;26.526;2023-03-21T14:28:22;99342.53;;;16.37;100.00
20019;BME280;10170;42.502;26.526;2023-03-21T14:30:53;99359.38;;;16.11;100.00
20019;BME280;10170;42.502;26.526;2023-03-21T14:33:37;99359.69;;;16.14;100.00
20019;BME280;10170;42.502;26.526;2023-03-21T14:36:10;99373.53;;;15.85;100.00
20019;BME280;10170;42.502;26.526;2023-03-21T14:38:39;99371.75;;;15.73;100.00
20019;BME280;10170;42.502;26.526;2023-03-21T14:41:24;99356.31;;;15.31;100.00
20019;BME280;10170;42.502;26.526;2023-03-21T14:44:14;99368.31;;;15.28;100.00
20019;BME280;10170;42.502;26.526;2023-03-21T14:46:42;99379.09;;;15.33;100.00
20019;BME280;10170;42.502;26.526;2023-03-21T14:49:23;99380.00;;;15.39;100.00
20019;BME280;10170;42.502;26.526;2023-03-21T14:51:54;99381.72;;;15.61;100.00
20019;BME280;10170;42.502;26.526;2023-03-21T14:54:21;99390.19;;;15.70;100.00
20019;BME280;10170;42.502;26.526;2023-03-21T14:56:56;99380.25;;;15.70;100.00
20019;BME280;10170;42.502;26.526;2023-03-21T14:59:26;99384.00;;;15.86;100.00
20019;BME280;10170;42.502;26.526;2023-03-21T15:01:54;99378.97;;;15.73;100.00
20019;BME280;10170;42.502;26.526;2023-03-21T15:04:21;99374.09;;;15.53;100.00